sensor_id;sensor_type;location;lat;lon;timestamp;P1;durP1;ratioP1;P2;durP2;ratioP2
7340;SDS011;6870;50.944;6.932;2023-01-24T00:01:15;3.70;;;2.73;;
7340;SDS011;6870;50.944;6.932;2023-01-24T00:03:43;4.77;;;3.20;;
7340;SDS011;6870;50.944;6.932;2023-01-24T00:06:13;2.70;;;2.30;;
7340;SDS011;6870;50.944;6.932;2023-01-24T00:08:41;5.30;;;2.70;;
7340;SDS011;6870;50.944;6.932;2023-01-24T00:11:10;4.17;;;2.70;;
7340;SDS011;6870;50.944;6.932;2023-01-24T00:13:39;3.77;;;2.67;;
7340;SDS011;6870;50.944;6.932;2023-01-24T00:16:08;5.13;;;2.63;;
7340;SDS011;6870;50.944;6.932;2023-01-24T00:18:40;3.70;;;2.87;;
7340;SDS011;6870;50.944;6.932;2023-01-24T00:21:09;3.83;;;3.10;;
7340;SDS011;6870;50.944;6.932;2023-01-24T00:23:41;3.03;;;2.50;;
7340;SDS011;6870;50.944;6.932;2023-01-24T00:26:12;5.10;;;2.77;;
7340;SDS011;6870;50.944;6.932;2023-01-24T00:28:41;4.97;;;2.87;;
7340;SDS011;6870;50.944;6.932;2023-01-24T00:31:09;3.27;;;2.17;;
7340;SDS011;6870;50.944;6.932;2023-01-24T00:33:38;2.40;;;2.20;;
7340;SDS011;6870;50.944;6.932;2023-01-24T00:36:07;6.07;;;3.37;;
7340;SDS011;6870;50.944;6.932;2023-01-24T00:38:37;4.57;;;2.70;;
7340;SDS011;6870;50.944;6.932;2023-01-24T00:41:06;3.37;;;2.40;;
7340;SDS011;6870;50.944;6.932;2023-01-24T00:43:34;2.73;;;2.43;;
7340;SDS011;6870;50.944;6.932;2023-01-24T00:46:04;3.97;;;2.27;;
7340;SDS011;6870;50.944;6.932;2023-01-24T00:48:33;9.83;;;2.73;;
7340;SDS011;6870;50.944;6.932;2023-01-24T00:51:01;5.43;;;2.70;;
7340;SDS011;6870;50.944;6.932;2023-01-24T00:53:30;2.77;;;2.30;;
7340;SDS011;6870;50.944;6.932;2023-01-24T00:55:59;3.10;;;2.73;;
7340;SDS011;6870;50.944;6.932;2023-01-24T00:58:27;3.33;;;2.80;;
7340;SDS011;6870;50.944;6.932;2023-01-24T01:00:55;4.30;;;2.53;;
7340;SDS011;6870;50.944;6.932;2023-01-24T01:03:26;8.60;;;2.60;;
7340;SDS011;6870;50.944;6.932;2023-01-24T01:05:58;5.60;;;2.40;;
7340;SDS011;6870;50.944;6.932;2023-01-24T01:08:27;5.20;;;2.90;;
7340;SDS011;6870;50.944;6.932;2023-01-24T01:10:55;3.20;;;2.57;;
7340;SDS011;6870;50.944;6.932;2023-01-24T01:13:25;2.73;;;2.40;;
7340;SDS011;6870;50.944;6.932;2023-01-24T01:15:59;3.77;;;2.60;;
7340;SDS011;6870;50.944;6.932;2023-01-24T01:18:28;5.20;;;2.70;;
7340;SDS011;6870;50.944;6.932;2023-01-24T01:20:56;2.67;;;2.47;;
7340;SDS011;6870;50.944;6.932;2023-01-24T01:23:25;4.10;;;2.40;;
7340;SDS011;6870;50.944;6.932;2023-01-24T01:25:53;3.87;;;2.50;;
7340;SDS011;6870;50.944;6.932;2023-01-24T01:28:27;2.57;;;1.97;;
7340;SDS011;6870;50.944;6.932;2023-01-24T01:30:56;2.70;;;2.40;;
7340;SDS011;6870;50.944;6.932;2023-01-24T01:33:24;2.93;;;1.97;;
7340;SDS011;6870;50.944;6.932;2023-01-24T01:35:52;5.13;;;2.67;;
7340;SDS011;6870;50.944;6.932;2023-01-24T01:38:20;3.57;;;2.47;;
7340;SDS011;6870;50.944;6.932;2023-01-24T01:40:50;7.00;;;2.20;;
7340;SDS011;6870;50.944;6.932;2023-01-24T01:43:19;5.10;;;2.90;;
7340;SDS011;6870;50.944;6.932;2023-01-24T01:45:51;3.40;;;2.50;;
7340;SDS011;6870;50.944;6.932;2023-01-24T01:48:22;4.60;;;2.10;;
7340;SDS011;6870;50.944;6.932;2023-01-24T01:51:02;4.40;;;2.80;;
7340;SDS011;6870;50.944;6.932;2023-01-24T01:53:40;2.73;;;2.23;;
7340;SDS011;6870;50.944;6.932;2023-01-24T01:56:13;2.13;;;1.90;;
7340;SDS011;6870;50.944;6.932;2023-01-24T01:58:47;3.37;;;2.43;;
7340;SDS011;6870;50.944;6.932;2023-01-24T02:01:17;2.57;;;1.97;;
7340;SDS011;6870;50.944;6.932;2023-01-24T02:03:46;3.20;;;2.13;;
7340;SDS011;6870;50.944;6.932;2023-01-24T02:06:27;5.20;;;3.00;;
7340;SDS011;6870;50.944;6.932;2023-01-24T02:09:08;5.67;;;2.50;;
7340;SDS011;6870;50.944;6.932;2023-01-24T02:11:37;3.70;;;2.40;;
7340;SDS011;6870;50.944;6.932;2023-01-24T02:14:07;5.20;;;2.43;;
7340;SDS011;6870;50.944;6.932;2023-01-24T02:16:56;3.87;;;2.20;;
7340;SDS011;6870;50.944;6.932;2023-01-24T02:19:30;3.43;;;2.20;;
7340;SDS011;6870;50.944;6.932;2023-01-24T02:22:12;4.13;;;2.70;;
7340;SDS011;6870;50.944;6.932;2023-01-24T02:24:45;3.30;;;2.60;;
7340;SDS011;6870;50.944;6.932;2023-01-24T02:27:26;5.90;;;2.27;;
7340;SDS011;6870;50.944;6.932;2023-01-24T02:29:55;4.30;;;2.80;;
7340;SDS011;6870;50.944;6.932;2023-01-24T02:32:24;5.37;;;2.63;;
7340;SDS011;6870;50.944;6.932;2023-01-24T02:34:53;3.13;;;2.20;;
7340;SDS011;6870;50.944;6.932;2023-01-24T02:37:21;8.60;;;2.47;;
7340;SDS011;6870;50.944;6.932;2023-01-24T02:39:50;2.80;;;2.00;;
7340;SDS011;6870;50.944;6.932;2023-01-24T02:58:51;5.00;;;2.30;;
7340;SDS011;6870;50.944;6.932;2023-01-24T03:01:19;3.97;;;2.60;;
7340;SDS011;6870;50.944;6.932;2023-01-24T03:03:49;3.40;;;2.13;;
7340;SDS011;6870;50.944;6.932;2023-01-24T03:06:18;3.60;;;2.30;;
7340;SDS011;6870;50.944;6.932;2023-01-24T03:08:46;5.00;;;2.13;;
7340;SDS011;6870;50.944;6.932;2023-01-24T03:11:14;4.90;;;2.80;;
7340;SDS011;6870;50.944;6.932;2023-01-24T03:13:42;4.70;;;3.00;;
7340;SDS011;6870;50.944;6.932;2023-01-24T03:16:31;8.27;;;3.00;;
7340;SDS011;6870;50.944;6.932;2023-01-24T03:19:18;3.47;;;1.70;;
7340;SDS011;6870;50.944;6.932;2023-01-24T03:22:03;6.67;;;2.50;;
7340;SDS011;6870;50.944;6.932;2023-01-24T03:24:49;5.57;;;2.20;;
7340;SDS011;6870;50.944;6.932;2023-01-24T03:27:34;5.50;;;2.30;;
7340;SDS011;6870;50.944;6.932;2023-01-24T03:30:20;3.30;;;2.07;;
7340;SDS011;6870;50.944;6.932;2023-01-24T03:33:07;6.63;;;1.87;;
7340;SDS011;6870;50.944;6.932;2023-01-24T03:35:53;7.80;;;2.50;;
7340;SDS011;6870;50.944;6.932;2023-01-24T03:38:21;4.90;;;2.50;;
7340;SDS011;6870;50.944;6.932;2023-01-24T03:41:08;9.53;;;2.57;;
7340;SDS011;6870;50.944;6.932;2023-01-24T03:43:36;8.57;;;2.20;;
7340;SDS011;6870;50.944;6.932;2023-01-24T03:46:04;7.27;;;3.13;;
7340;SDS011;6870;50.944;6.932;2023-01-24T03:48:34;7.93;;;2.90;;
7340;SDS011;6870;50.944;6.932;2023-01-24T03:51:03;6.10;;;2.50;;
7340;SDS011;6870;50.944;6.932;2023-01-24T03:53:49;4.27;;;2.00;;
7340;SDS011;6870;50.944;6.932;2023-01-24T03:56:17;2.50;;;1.90;;
7340;SDS011;6870;50.944;6.932;2023-01-24T03:58:45;2.77;;;2.17;;
7340;SDS011;6870;50.944;6.932;2023-01-24T04:01:13;4.10;;;1.90;;
7340;SDS011;6870;50.944;6.932;2023-01-24T04:03:43;3.60;;;1.80;;
7340;SDS011;6870;50.944;6.932;2023-01-24T04:06:11;4.27;;;2.47;;
7340;SDS011;6870;50.944;6.932;2023-01-24T04:08:39;4.40;;;2.10;;
7340;SDS011;6870;50.944;6.932;2023-01-24T04:11:07;2.93;;;2.00;;
7340;SDS011;6870;50.944;6.932;2023-01-24T04:13:35;3.57;;;1.80;;
7340;SDS011;6870;50.944;6.932;2023-01-24T04:16:05;8.13;;;2.57;;
7340;SDS011;6870;50.944;6.932;2023-01-24T04:18:34;2.90;;;2.17;;
7340;SDS011;6870;50.944;6.932;2023-01-24T04:21:04;4.53;;;1.83;;
7340;SDS011;6870;50.944;6.932;2023-01-24T04:23:32;3.67;;;2.00;;
7340;SDS011;6870;50.944;6.932;2023-01-24T04:26:00;5.73;;;2.00;;
7340;SDS011;6870;50.944;6.932;2023-01-24T04:28:30;5.17;;;1.90;;
7340;SDS011;6870;50.944;6.932;2023-01-24T04:30:58;4.37;;;2.40;;
7340;SDS011;6870;50.944;6.932;2023-01-24T04:33:28;7.13;;;2.20;;
7340;SDS011;6870;50.944;6.932;2023-01-24T04:35:56;2.33;;;1.77;;
7340;SDS011;6870;50.944;6.932;2023-01-24T04:38:26;2.63;;;2.27;;
7340;SDS011;6870;50.944;6.932;2023-01-24T04:40:58;4.20;;;2.00;;
7340;SDS011;6870;50.944;6.932;2023-01-24T04:43:28;3.23;;;1.83;;
7340;SDS011;6870;50.944;6.932;2023-01-24T04:45:56;3.47;;;2.00;;
7340;SDS011;6870;50.944;6.932;2023-01-24T04:48:24;5.50;;;2.00;;
7340;SDS011;6870;50.944;6.932;2023-01-24T04:50:57;3.07;;;2.47;;
7340;SDS011;6870;50.944;6.932;2023-01-24T04:53:27;6.50;;;1.63;;
7340;SDS011;6870;50.944;6.932;2023-01-24T04:55:59;6.37;;;1.93;;
7340;SDS011;6870;50.944;6.932;2023-01-24T04:58:27;3.70;;;1.80;;
7340;SDS011;6870;50.944;6.932;2023-01-24T05:00:56;4.43;;;2.10;;
7340;SDS011;6870;50.944;6.932;2023-01-24T05:03:25;4.40;;;2.20;;
7340;SDS011;6870;50.944;6.932;2023-01-24T05:05:54;5.27;;;2.00;;
7340;SDS011;6870;50.944;6.932;2023-01-24T05:08:22;8.17;;;3.20;;
7340;SDS011;6870;50.944;6.932;2023-01-24T05:10:51;4.63;;;2.00;;
7340;SDS011;6870;50.944;6.932;2023-01-24T05:13:20;5.40;;;2.43;;
7340;SDS011;6870;50.944;6.932;2023-01-24T05:15:48;2.03;;;1.70;;
7340;SDS011;6870;50.944;6.932;2023-01-24T05:18:17;4.23;;;2.20;;
7340;SDS011;6870;50.944;6.932;2023-01-24T05:20:45;7.23;;;1.87;;
7340;SDS011;6870;50.944;6.932;2023-01-24T05:23:14;3.03;;;1.83;;
7340;SDS011;6870;50.944;6.932;2023-01-24T05:25:42;4.87;;;1.67;;
7340;SDS011;6870;50.944;6.932;2023-01-24T05:28:11;5.67;;;1.93;;
7340;SDS011;6870;50.944;6.932;2023-01-24T05:30:39;5.50;;;1.60;;
7340;SDS011;6870;50.944;6.932;2023-01-24T05:33:07;6.70;;;2.57;;
7340;SDS011;6870;50.944;6.932;2023-01-24T05:35:35;4.50;;;2.30;;
7340;SDS011;6870;50.944;6.932;2023-01-24T05:38:03;4.43;;;1.60;;
7340;SDS011;6870;50.944;6.932;2023-01-24T05:40:31;4.90;;;2.27;;
7340;SDS011;6870;50.944;6.932;2023-01-24T05:42:59;6.10;;;2.30;;
7340;SDS011;6870;50.944;6.932;2023-01-24T05:45:28;4.10;;;2.17;;
7340;SDS011;6870;50.944;6.932;2023-01-24T05:47:56;2.80;;;2.20;;
7340;SDS011;6870;50.944;6.932;2023-01-24T05:50:24;4.90;;;2.90;;
7340;SDS011;6870;50.944;6.932;2023-01-24T05:52:52;3.27;;;2.97;;
7340;SDS011;6870;50.944;6.932;2023-01-24T05:55:20;5.53;;;2.87;;
7340;SDS011;6870;50.944;6.932;2023-01-24T05:57:49;5.20;;;2.93;;
7340;SDS011;6870;50.944;6.932;2023-01-24T06:00:17;5.80;;;3.53;;
7340;SDS011;6870;50.944;6.932;2023-01-24T06:02:47;8.33;;;3.93;;
7340;SDS011;6870;50.944;6.932;2023-01-24T06:05:15;13.67;;;4.27;;
7340;SDS011;6870;50.944;6.932;2023-01-24T06:07:43;14.60;;;5.00;;
7340;SDS011;6870;50.944;6.932;2023-01-24T06:10:11;13.00;;;4.70;;
7340;SDS011;6870;50.944;6.932;2023-01-24T06:12:39;10.97;;;3.80;;
7340;SDS011;6870;50.944;6.932;2023-01-24T06:15:07;15.73;;;5.73;;
7340;SDS011;6870;50.944;6.932;2023-01-24T06:17:36;6.33;;;3.60;;
7340;SDS011;6870;50.944;6.932;2023-01-24T06:20:08;7.40;;;3.80;;
7340;SDS011;6870;50.944;6.932;2023-01-24T06:22:41;11.50;;;4.50;;
7340;SDS011;6870;50.944;6.932;2023-01-24T06:25:18;5.83;;;3.73;;
7340;SDS011;6870;50.944;6.932;2023-01-24T06:27:50;12.27;;;4.00;;
7340;SDS011;6870;50.944;6.932;2023-01-24T06:30:19;10.63;;;4.53;;
7340;SDS011;6870;50.944;6.932;2023-01-24T06:36:05;10.70;;;3.80;;
7340;SDS011;6870;50.944;6.932;2023-01-24T06:38:50;5.20;;;3.77;;
7340;SDS011;6870;50.944;6.932;2023-01-24T06:41:19;6.27;;;3.27;;
7340;SDS011;6870;50.944;6.932;2023-01-24T06:43:48;7.83;;;3.80;;
7340;SDS011;6870;50.944;6.932;2023-01-24T06:46:16;9.73;;;3.53;;
7340;SDS011;6870;50.944;6.932;2023-01-24T06:48:44;4.00;;;2.43;;
7340;SDS011;6870;50.944;6.932;2023-01-24T06:51:14;8.47;;;2.90;;
7340;SDS011;6870;50.944;6.932;2023-01-24T06:53:42;8.53;;;3.20;;
7340;SDS011;6870;50.944;6.932;2023-01-24T06:56:10;6.60;;;3.60;;
7340;SDS011;6870;50.944;6.932;2023-01-24T06:58:38;8.10;;;3.20;;
7340;SDS011;6870;50.944;6.932;2023-01-24T07:01:06;6.57;;;3.20;;
7340;SDS011;6870;50.944;6.932;2023-01-24T07:03:34;8.23;;;3.67;;
7340;SDS011;6870;50.944;6.932;2023-01-24T07:06:02;6.13;;;3.17;;
7340;SDS011;6870;50.944;6.932;2023-01-24T07:08:32;6.13;;;3.20;;
7340;SDS011;6870;50.944;6.932;2023-01-24T07:11:00;6.50;;;3.33;;
7340;SDS011;6870;50.944;6.932;2023-01-24T07:13:28;6.73;;;3.13;;
7340;SDS011;6870;50.944;6.932;2023-01-24T07:15:59;7.27;;;2.50;;
7340;SDS011;6870;50.944;6.932;2023-01-24T07:18:28;4.87;;;3.07;;
7340;SDS011;6870;50.944;6.932;2023-01-24T07:20:57;5.70;;;3.33;;
7340;SDS011;6870;50.944;6.932;2023-01-24T07:23:26;12.17;;;2.73;;
7340;SDS011;6870;50.944;6.932;2023-01-24T07:25:58;10.53;;;3.70;;
7340;SDS011;6870;50.944;6.932;2023-01-24T07:28:26;6.10;;;3.37;;
7340;SDS011;6870;50.944;6.932;2023-01-24T07:30:54;3.90;;;3.00;;
7340;SDS011;6870;50.944;6.932;2023-01-24T07:33:23;6.13;;;3.20;;
7340;SDS011;6870;50.944;6.932;2023-01-24T07:35:51;15.23;;;2.93;;
7340;SDS011;6870;50.944;6.932;2023-01-24T07:38:19;5.97;;;2.60;;
7340;SDS011;6870;50.944;6.932;2023-01-24T07:40:47;11.43;;;3.30;;
7340;SDS011;6870;50.944;6.932;2023-01-24T07:43:16;5.47;;;2.60;;
7340;SDS011;6870;50.944;6.932;2023-01-24T07:45:46;9.47;;;2.67;;
7340;SDS011;6870;50.944;6.932;2023-01-24T07:48:18;9.00;;;2.60;;
7340;SDS011;6870;50.944;6.932;2023-01-24T07:50:46;6.60;;;2.00;;
7340;SDS011;6870;50.944;6.932;2023-01-24T07:53:14;8.53;;;2.80;;
7340;SDS011;6870;50.944;6.932;2023-01-24T07:55:42;8.30;;;3.50;;
7340;SDS011;6870;50.944;6.932;2023-01-24T07:58:28;9.50;;;2.33;;
7340;SDS011;6870;50.944;6.932;2023-01-24T08:00:57;3.63;;;2.50;;
7340;SDS011;6870;50.944;6.932;2023-01-24T08:03:25;5.53;;;3.40;;
7340;SDS011;6870;50.944;6.932;2023-01-24T08:05:53;6.30;;;2.20;;
7340;SDS011;6870;50.944;6.932;2023-01-24T08:08:21;4.73;;;2.00;;
7340;SDS011;6870;50.944;6.932;2023-01-24T08:10:49;9.60;;;3.60;;
7340;SDS011;6870;50.944;6.932;2023-01-24T08:13:17;3.50;;;3.20;;
7340;SDS011;6870;50.944;6.932;2023-01-24T08:15:46;6.40;;;2.60;;
7340;SDS011;6870;50.944;6.932;2023-01-24T08:18:14;7.03;;;2.73;;
7340;SDS011;6870;50.944;6.932;2023-01-24T08:20:43;4.70;;;2.97;;
7340;SDS011;6870;50.944;6.932;2023-01-24T08:23:11;8.30;;;2.40;;
7340;SDS011;6870;50.944;6.932;2023-01-24T08:25:39;3.20;;;2.20;;
7340;SDS011;6870;50.944;6.932;2023-01-24T08:28:07;4.77;;;2.40;;
7340;SDS011;6870;50.944;6.932;2023-01-24T08:30:35;6.10;;;2.57;;
7340;SDS011;6870;50.944;6.932;2023-01-24T08:33:05;4.30;;;2.50;;
7340;SDS011;6870;50.944;6.932;2023-01-24T08:35:34;9.17;;;3.80;;
7340;SDS011;6870;50.944;6.932;2023-01-24T08:38:04;8.07;;;2.40;;
7340;SDS011;6870;50.944;6.932;2023-01-24T08:40:33;8.83;;;3.53;;
7340;SDS011;6870;50.944;6.932;2023-01-24T08:43:14;6.13;;;2.50;;
7340;SDS011;6870;50.944;6.932;2023-01-24T08:45:42;3.80;;;2.27;;
7340;SDS011;6870;50.944;6.932;2023-01-24T08:48:11;7.67;;;2.40;;
7340;SDS011;6870;50.944;6.932;2023-01-24T08:50:39;5.87;;;3.00;;
7340;SDS011;6870;50.944;6.932;2023-01-24T08:53:10;2.30;;;1.67;;
7340;SDS011;6870;50.944;6.932;2023-01-24T08:55:38;4.63;;;2.70;;
7340;SDS011;6870;50.944;6.932;2023-01-24T08:58:06;3.10;;;2.53;;
7340;SDS011;6870;50.944;6.932;2023-01-24T09:00:34;4.60;;;2.07;;
7340;SDS011;6870;50.944;6.932;2023-01-24T09:03:02;2.60;;;2.00;;
7340;SDS011;6870;50.944;6.932;2023-01-24T09:05:31;2.63;;;1.80;;
7340;SDS011;6870;50.944;6.932;2023-01-24T09:08:00;3.43;;;2.57;;
7340;SDS011;6870;50.944;6.932;2023-01-24T09:10:29;3.30;;;2.40;;
7340;SDS011;6870;50.944;6.932;2023-01-24T09:12:56;3.43;;;2.60;;
7340;SDS011;6870;50.944;6.932;2023-01-24T09:15:24;4.03;;;2.30;;
7340;SDS011;6870;50.944;6.932;2023-01-24T09:17:52;4.80;;;2.83;;
7340;SDS011;6870;50.944;6.932;2023-01-24T09:20:21;6.57;;;2.67;;
7340;SDS011;6870;50.944;6.932;2023-01-24T09:22:51;3.33;;;2.33;;
7340;SDS011;6870;50.944;6.932;2023-01-24T09:25:19;6.23;;;2.60;;
7340;SDS011;6870;50.944;6.932;2023-01-24T09:27:51;4.20;;;2.53;;
7340;SDS011;6870;50.944;6.932;2023-01-24T09:30:20;3.00;;;2.00;;
7340;SDS011;6870;50.944;6.932;2023-01-24T09:32:50;2.60;;;2.20;;
7340;SDS011;6870;50.944;6.932;2023-01-24T09:35:18;3.27;;;2.70;;
7340;SDS011;6870;50.944;6.932;2023-01-24T09:37:46;4.03;;;2.10;;
7340;SDS011;6870;50.944;6.932;2023-01-24T09:40:20;2.30;;;2.07;;
7340;SDS011;6870;50.944;6.932;2023-01-24T09:42:55;4.43;;;1.50;;
7340;SDS011;6870;50.944;6.932;2023-01-24T09:45:33;4.07;;;2.87;;
7340;SDS011;6870;50.944;6.932;2023-01-24T09:48:10;2.57;;;2.37;;
7340;SDS011;6870;50.944;6.932;2023-01-24T09:50:41;2.73;;;2.00;;
7340;SDS011;6870;50.944;6.932;2023-01-24T09:53:16;7.57;;;3.00;;
7340;SDS011;6870;50.944;6.932;2023-01-24T09:55:51;5.87;;;2.20;;
7340;SDS011;6870;50.944;6.932;2023-01-24T09:58:23;2.80;;;1.70;;
7340;SDS011;6870;50.944;6.932;2023-01-24T10:00:58;4.73;;;2.20;;
7340;SDS011;6870;50.944;6.932;2023-01-24T10:03:28;3.17;;;2.57;;
7340;SDS011;6870;50.944;6.932;2023-01-24T10:05:57;2.20;;;1.67;;
7340;SDS011;6870;50.944;6.932;2023-01-24T10:08:34;2.80;;;2.00;;
7340;SDS011;6870;50.944;6.932;2023-01-24T10:11:15;3.40;;;1.87;;
7340;SDS011;6870;50.944;6.932;2023-01-24T10:13:57;8.47;;;2.57;;
7340;SDS011;6870;50.944;6.932;2023-01-24T10:16:45;2.40;;;1.83;;
7340;SDS011;6870;50.944;6.932;2023-01-24T10:19:31;2.40;;;1.93;;
7340;SDS011;6870;50.944;6.932;2023-01-24T10:22:22;2.50;;;2.00;;
7340;SDS011;6870;50.944;6.932;2023-01-24T10:25:09;3.03;;;1.80;;
7340;SDS011;6870;50.944;6.932;2023-01-24T10:27:46;2.97;;;2.60;;
7340;SDS011;6870;50.944;6.932;2023-01-24T10:30:17;4.67;;;1.90;;
7340;SDS011;6870;50.944;6.932;2023-01-24T10:32:52;2.93;;;2.30;;
7340;SDS011;6870;50.944;6.932;2023-01-24T10:35:28;2.57;;;1.83;;
7340;SDS011;6870;50.944;6.932;2023-01-24T10:38:01;3.97;;;2.07;;
7340;SDS011;6870;50.944;6.932;2023-01-24T10:40:33;2.40;;;2.00;;
7340;SDS011;6870;50.944;6.932;2023-01-24T10:43:18;3.30;;;2.17;;
7340;SDS011;6870;50.944;6.932;2023-01-24T10:45:52;2.53;;;2.33;;
7340;SDS011;6870;50.944;6.932;2023-01-24T10:48:35;4.13;;;2.40;;
7340;SDS011;6870;50.944;6.932;2023-01-24T10:51:10;2.63;;;2.43;;
7340;SDS011;6870;50.944;6.932;2023-01-24T10:53:41;2.10;;;1.90;;
7340;SDS011;6870;50.944;6.932;2023-01-24T10:56:10;3.30;;;1.87;;
7340;SDS011;6870;50.944;6.932;2023-01-24T10:58:43;2.23;;;2.03;;
7340;SDS011;6870;50.944;6.932;2023-01-24T11:01:23;3.43;;;2.37;;
7340;SDS011;6870;50.944;6.932;2023-01-24T11:04:01;3.43;;;2.17;;
7340;SDS011;6870;50.944;6.932;2023-01-24T11:06:43;4.33;;;1.90;;
7340;SDS011;6870;50.944;6.932;2023-01-24T11:09:14;4.60;;;2.50;;
7340;SDS011;6870;50.944;6.932;2023-01-24T11:11:46;5.07;;;2.37;;
7340;SDS011;6870;50.944;6.932;2023-01-24T11:14:19;4.30;;;2.40;;
7340;SDS011;6870;50.944;6.932;2023-01-24T11:16:50;2.50;;;1.83;;
7340;SDS011;6870;50.944;6.932;2023-01-24T11:19:21;2.70;;;2.10;;
7340;SDS011;6870;50.944;6.932;2023-01-24T11:21:55;3.30;;;2.57;;
7340;SDS011;6870;50.944;6.932;2023-01-24T11:24:26;2.90;;;2.50;;
7340;SDS011;6870;50.944;6.932;2023-01-24T11:26:57;2.13;;;1.77;;
7340;SDS011;6870;50.944;6.932;2023-01-24T11:29:32;2.80;;;2.00;;
7340;SDS011;6870;50.944;6.932;2023-01-24T11:32:03;3.10;;;2.13;;
7340;SDS011;6870;50.944;6.932;2023-01-24T11:34:53;4.67;;;2.00;;
7340;SDS011;6870;50.944;6.932;2023-01-24T11:37:43;2.27;;;2.07;;
7340;SDS011;6870;50.944;6.932;2023-01-24T11:40:41;2.83;;;2.13;;
7340;SDS011;6870;50.944;6.932;2023-01-24T11:43:18;2.57;;;2.20;;
7340;SDS011;6870;50.944;6.932;2023-01-24T11:46:08;2.60;;;1.87;;
7340;SDS011;6870;50.944;6.932;2023-01-24T11:48:49;3.10;;;2.23;;
7340;SDS011;6870;50.944;6.932;2023-01-24T11:51:29;3.03;;;2.30;;
7340;SDS011;6870;50.944;6.932;2023-01-24T11:54:16;2.53;;;2.30;;
7340;SDS011;6870;50.944;6.932;2023-01-24T11:56:59;4.30;;;2.40;;
7340;SDS011;6870;50.944;6.932;2023-01-24T11:59:33;3.30;;;1.90;;
7340;SDS011;6870;50.944;6.932;2023-01-24T12:02:26;1.93;;;1.73;;
7340;SDS011;6870;50.944;6.932;2023-01-24T12:05:15;5.33;;;3.33;;
7340;SDS011;6870;50.944;6.932;2023-01-24T12:07:56;4.80;;;2.77;;
7340;SDS011;6870;50.944;6.932;2023-01-24T12:10:47;2.60;;;2.03;;
7340;SDS011;6870;50.944;6.932;2023-01-24T12:13:47;3.47;;;1.80;;
7340;SDS011;6870;50.944;6.932;2023-01-24T12:16:24;2.97;;;2.20;;
7340;SDS011;6870;50.944;6.932;2023-01-24T12:19:19;2.90;;;2.10;;
7340;SDS011;6870;50.944;6.932;2023-01-24T12:22:14;2.13;;;1.80;;
7340;SDS011;6870;50.944;6.932;2023-01-24T12:24:46;2.40;;;2.00;;
7340;SDS011;6870;50.944;6.932;2023-01-24T12:27:22;3.10;;;2.10;;
7340;SDS011;6870;50.944;6.932;2023-01-24T12:29:55;2.37;;;2.17;;
7340;SDS011;6870;50.944;6.932;2023-01-24T12:32:28;2.47;;;2.20;;
7340;SDS011;6870;50.944;6.932;2023-01-24T12:35:09;2.33;;;1.90;;
7340;SDS011;6870;50.944;6.932;2023-01-24T12:37:48;2.40;;;2.00;;
7340;SDS011;6870;50.944;6.932;2023-01-24T12:40:38;10.60;;;2.20;;
7340;SDS011;6870;50.944;6.932;2023-01-24T12:43:16;3.07;;;2.33;;
7340;SDS011;6870;50.944;6.932;2023-01-24T12:45:53;2.80;;;1.93;;
7340;SDS011;6870;50.944;6.932;2023-01-24T12:48:29;2.40;;;1.67;;
7340;SDS011;6870;50.944;6.932;2023-01-24T12:51:09;2.50;;;2.30;;
7340;SDS011;6870;50.944;6.932;2023-01-24T12:53:52;4.23;;;2.40;;
7340;SDS011;6870;50.944;6.932;2023-01-24T12:56:28;3.50;;;2.77;;
7340;SDS011;6870;50.944;6.932;2023-01-24T12:59:07;1.83;;;1.63;;
7340;SDS011;6870;50.944;6.932;2023-01-24T13:01:54;3.37;;;2.30;;
7340;SDS011;6870;50.944;6.932;2023-01-24T13:04:48;3.27;;;2.97;;
7340;SDS011;6870;50.944;6.932;2023-01-24T13:07:32;2.50;;;2.07;;
7340;SDS011;6870;50.944;6.932;2023-01-24T13:10:14;2.70;;;2.10;;
7340;SDS011;6870;50.944;6.932;2023-01-24T13:12:49;2.83;;;2.20;;
7340;SDS011;6870;50.944;6.932;2023-01-24T13:15:20;4.43;;;1.93;;
7340;SDS011;6870;50.944;6.932;2023-01-24T13:18:00;1.80;;;1.60;;
7340;SDS011;6870;50.944;6.932;2023-01-24T13:20:51;3.93;;;2.20;;
7340;SDS011;6870;50.944;6.932;2023-01-24T13:23:35;2.80;;;1.63;;
7340;SDS011;6870;50.944;6.932;2023-01-24T13:26:25;5.40;;;2.57;;
7340;SDS011;6870;50.944;6.932;2023-01-24T13:29:17;4.10;;;1.73;;
7340;SDS011;6870;50.944;6.932;2023-01-24T13:32:14;2.00;;;1.80;;
7340;SDS011;6870;50.944;6.932;2023-01-24T13:34:46;3.23;;;2.27;;
7340;SDS011;6870;50.944;6.932;2023-01-24T13:37:18;2.90;;;2.40;;
7340;SDS011;6870;50.944;6.932;2023-01-24T13:39:59;3.80;;;1.70;;
7340;SDS011;6870;50.944;6.932;2023-01-24T13:42:34;2.20;;;2.00;;
7340;SDS011;6870;50.944;6.932;2023-01-24T13:51:27;2.30;;;1.87;;
7340;SDS011;6870;50.944;6.932;2023-01-24T13:54:16;3.87;;;3.13;;
7340;SDS011;6870;50.944;6.932;2023-01-24T13:57:14;5.83;;;2.07;;
7340;SDS011;6870;50.944;6.932;2023-01-24T13:59:57;3.17;;;2.23;;
7340;SDS011;6870;50.944;6.932;2023-01-24T14:02:42;2.50;;;1.90;;
7340;SDS011;6870;50.944;6.932;2023-01-24T14:05:39;2.27;;;1.60;;
7340;SDS011;6870;50.944;6.932;2023-01-24T14:08:14;5.40;;;2.23;;
7340;SDS011;6870;50.944;6.932;2023-01-24T14:14:01;2.30;;;1.90;;
7340;SDS011;6870;50.944;6.932;2023-01-24T14:17:02;1.73;;;1.50;;
7340;SDS011;6870;50.944;6.932;2023-01-24T14:19:47;2.03;;;1.70;;
7340;SDS011;6870;50.944;6.932;2023-01-24T14:25:17;2.97;;;2.10;;
7340;SDS011;6870;50.944;6.932;2023-01-24T14:27:57;2.40;;;1.80;;
7340;SDS011;6870;50.944;6.932;2023-01-24T14:30:32;4.43;;;2.00;;
7340;SDS011;6870;50.944;6.932;2023-01-24T14:33:19;5.90;;;1.90;;
7340;SDS011;6870;50.944;6.932;2023-01-24T14:35:58;2.47;;;1.83;;
7340;SDS011;6870;50.944;6.932;2023-01-24T14:38:32;3.30;;;2.77;;
7340;SDS011;6870;50.944;6.932;2023-01-24T14:41:00;2.50;;;2.20;;
7340;SDS011;6870;50.944;6.932;2023-01-24T14:43:32;7.00;;;1.97;;
7340;SDS011;6870;50.944;6.932;2023-01-24T14:46:12;2.13;;;1.90;;
7340;SDS011;6870;50.944;6.932;2023-01-24T14:48:48;2.07;;;1.60;;
7340;SDS011;6870;50.944;6.932;2023-01-24T14:51:17;5.33;;;1.77;;
7340;SDS011;6870;50.944;6.932;2023-01-24T14:53:46;2.80;;;1.90;;
7340;SDS011;6870;50.944;6.932;2023-01-24T14:56:16;2.83;;;1.53;;
7340;SDS011;6870;50.944;6.932;2023-01-24T14:58:44;3.67;;;1.90;;
7340;SDS011;6870;50.944;6.932;2023-01-24T15:01:23;5.57;;;2.53;;
7340;SDS011;6870;50.944;6.932;2023-01-24T15:03:55;2.43;;;1.70;;
7340;SDS011;6870;50.944;6.932;2023-01-24T15:06:24;2.00;;;1.70;;
7340;SDS011;6870;50.944;6.932;2023-01-24T15:08:55;2.17;;;1.77;;
7340;SDS011;6870;50.944;6.932;2023-01-24T15:11:26;2.97;;;2.03;;
7340;SDS011;6870;50.944;6.932;2023-01-24T15:13:56;3.25;;;2.10;;
7340;SDS011;6870;50.944;6.932;2023-01-24T15:16:31;3.17;;;2.10;;
7340;SDS011;6870;50.944;6.932;2023-01-24T15:19:03;2.10;;;1.60;;
7340;SDS011;6870;50.944;6.932;2023-01-24T15:21:34;1.73;;;1.30;;
7340;SDS011;6870;50.944;6.932;2023-01-24T15:24:06;4.53;;;1.60;;
7340;SDS011;6870;50.944;6.932;2023-01-24T15:26:46;2.40;;;1.60;;
7340;SDS011;6870;50.944;6.932;2023-01-24T15:35:22;3.63;;;2.87;;
7340;SDS011;6870;50.944;6.932;2023-01-24T15:40:56;4.23;;;1.80;;
7340;SDS011;6870;50.944;6.932;2023-01-24T15:43:30;2.23;;;1.40;;
7340;SDS011;6870;50.944;6.932;2023-01-24T15:46:22;2.87;;;2.00;;
7340;SDS011;6870;50.944;6.932;2023-01-24T15:49:26;2.37;;;2.17;;
7340;SDS011;6870;50.944;6.932;2023-01-24T15:52:02;5.07;;;2.40;;
7340;SDS011;6870;50.944;6.932;2023-01-24T15:54:41;4.20;;;2.03;;
7340;SDS011;6870;50.944;6.932;2023-01-24T15:57:18;2.87;;;2.10;;
7340;SDS011;6870;50.944;6.932;2023-01-24T15:59:51;3.03;;;2.80;;
7340;SDS011;6870;50.944;6.932;2023-01-24T16:02:22;2.63;;;1.90;;
7340;SDS011;6870;50.944;6.932;2023-01-24T16:04:51;2.90;;;2.00;;
7340;SDS011;6870;50.944;6.932;2023-01-24T16:07:20;3.83;;;2.37;;
7340;SDS011;6870;50.944;6.932;2023-01-24T16:09:49;5.93;;;2.80;;
7340;SDS011;6870;50.944;6.932;2023-01-24T16:12:21;3.70;;;1.90;;
7340;SDS011;6870;50.944;6.932;2023-01-24T16:14:50;3.53;;;2.00;;
7340;SDS011;6870;50.944;6.932;2023-01-24T16:17:34;7.33;;;2.57;;
7340;SDS011;6870;50.944;6.932;2023-01-24T16:20:08;3.93;;;1.80;;
7340;SDS011;6870;50.944;6.932;2023-01-24T16:22:45;4.90;;;2.90;;
7340;SDS011;6870;50.944;6.932;2023-01-24T16:25:14;4.70;;;2.13;;
7340;SDS011;6870;50.944;6.932;2023-01-24T16:27:45;4.07;;;2.50;;
7340;SDS011;6870;50.944;6.932;2023-01-24T16:30:15;4.07;;;2.90;;
7340;SDS011;6870;50.944;6.932;2023-01-24T16:32:45;3.37;;;2.37;;
7340;SDS011;6870;50.944;6.932;2023-01-24T16:35:15;5.73;;;3.00;;